createdAt,value
2022-08-18T00:01:52.083Z,10.75
2022-08-18T00:04:34.924Z,11.38
2022-08-18T00:07:02.743Z,10.80
2022-08-18T00:09:32.528Z,10.52
2022-08-18T00:12:02.075Z,10.23
2022-08-18T00:14:29.125Z,11.15
2022-08-18T00:16:55.915Z,9.77
2022-08-18T00:19:43.500Z,10.85
2022-08-18T00:22:15.239Z,10.77
2022-08-18T00:24:47.883Z,11.70
2022-08-18T00:27:22.920Z,11.02
2022-08-18T00:29:51.799Z,11.23
2022-08-18T00:32:22.304Z,11.30
2022-08-18T00:34:48.958Z,10.55
2022-08-18T00:37:16.626Z,10.73
2022-08-18T00:39:46.124Z,11.00
2022-08-18T00:42:27.462Z,11.02
2022-08-18T00:45:02.551Z,10.82
2022-08-18T00:47:42.099Z,11.38
2022-08-18T00:50:15.164Z,10.40
2022-08-18T00:52:47.087Z,10.50
2022-08-18T00:55:14.142Z,11.55
2022-08-18T00:57:42.783Z,10.55
2022-08-18T01:00:12.882Z,11.52
2022-08-18T01:02:46.579Z,10.88
2022-08-18T01:05:21.991Z,11.25
2022-08-18T01:07:50.097Z,11.25
2022-08-18T01:10:19.899Z,11.40
2022-08-18T01:12:51.753Z,11.60
2022-08-18T01:15:28.777Z,11.48
2022-08-18T01:18:17.074Z,11.85
2022-08-18T01:21:35.944Z,11.63
2022-08-18T01:24:04.929Z,11.57
2022-08-18T01:26:32.204Z,11.85
2022-08-18T01:29:05.403Z,11.35
2022-08-18T01:31:38.615Z,12.07
2022-08-18T01:34:10.499Z,11.52
2022-08-18T01:36:38.755Z,12.18
2022-08-18T01:39:07.689Z,11.07
2022-08-18T01:41:34.509Z,11.93
2022-08-18T01:44:02.478Z,12.38
2022-08-18T01:46:32.158Z,13.20
2022-08-18T01:49:01.285Z,12.27
2022-08-18T01:51:39.569Z,10.75
2022-08-18T01:54:12.453Z,12.25
2022-08-18T01:56:40.784Z,12.13
2022-08-18T01:59:10.479Z,11.95
2022-08-18T02:01:43.322Z,12.18
2022-08-18T02:04:34.287Z,11.70
2022-08-18T02:07:03.633Z,11.57
2022-08-18T02:09:31.192Z,11.55
2022-08-18T02:11:58.011Z,12.55
2022-08-18T02:14:27.199Z,12.38
2022-08-18T02:17:01.613Z,12.30
2022-08-18T02:19:38.460Z,11.63
2022-08-18T02:22:06.345Z,12.27
2022-08-18T02:24:33.038Z,12.90
2022-08-18T02:26:59.846Z,12.25
2022-08-18T02:29:26.565Z,12.75
2022-08-18T02:31:53.501Z,12.18
2022-08-18T02:34:20.125Z,13.02
2022-08-18T02:36:46.752Z,13.48
2022-08-18T02:39:13.485Z,13.43
2022-08-18T02:41:40.113Z,13.00
2022-08-18T02:44:07.995Z,14.15
2022-08-18T02:46:35.433Z,12.88
2022-08-18T02:49:02.793Z,11.90
2022-08-18T02:51:29.679Z,13.13
2022-08-18T02:53:59.695Z,13.88
2022-08-18T02:56:41.640Z,13.52
2022-08-18T02:59:14.894Z,13.52
2022-08-18T03:01:45.533Z,13.85
2022-08-18T03:04:16.645Z,13.40
2022-08-18T03:06:44.319Z,14.48
2022-08-18T03:09:14.901Z,14.00
2022-08-18T03:11:43.436Z,14.13
2022-08-18T03:14:11.152Z,14.88
2022-08-18T03:16:53.340Z,14.98
2022-08-18T03:19:22.837Z,15.88
2022-08-18T03:21:49.492Z,15.30
2022-08-18T03:24:22.979Z,13.93
2022-08-18T03:26:52.059Z,14.60
2022-08-18T03:29:19.498Z,14.73
2022-08-18T03:31:48.488Z,14.57
2022-08-18T03:34:16.121Z,15.02
2022-08-18T03:36:42.782Z,14.73
2022-08-18T03:39:11.293Z,14.95
2022-08-18T03:41:59.022Z,14.65
2022-08-18T03:44:32.576Z,15.15
2022-08-18T03:47:01.048Z,15.23
2022-08-18T03:49:27.952Z,14.82
2022-08-18T03:51:55.179Z,14.73
2022-08-18T03:54:21.947Z,15.50
2022-08-18T03:56:49.677Z,14.80
2022-08-18T03:59:19.815Z,14.48
2022-08-18T04:01:48.361Z,14.73
2022-08-18T04:04:19.241Z,13.80
2022-08-18T04:06:51.477Z,13.45
2022-08-18T04:09:19.467Z,15.05
2022-08-18T04:11:46.890Z,14.73
2022-08-18T04:14:18.649Z,14.88
2022-08-18T04:16:46.469Z,13.30
2022-08-18T04:19:14.152Z,14.57
2022-08-18T04:21:53.616Z,15.50
2022-08-18T04:24:20.294Z,15.43
2022-08-18T04:26:47.988Z,15.23
2022-08-18T04:29:17.332Z,13.93
2022-08-18T04:31:44.947Z,14.13
2022-08-18T04:34:12.424Z,15.82
2022-08-18T04:36:40.878Z,14.30
2022-08-18T04:39:09.629Z,14.07
2022-08-18T04:41:37.415Z,13.82
2022-08-18T04:44:07.321Z,14.35
2022-08-18T04:46:42.576Z,15.63
2022-08-18T04:49:10.715Z,14.75
2022-08-18T04:52:30.879Z,14.13
2022-08-18T04:54:36.986Z,13.90
2022-08-18T04:57:10.393Z,13.55
2022-08-18T04:59:37.554Z,13.38
2022-08-18T05:02:10.257Z,14.02
2022-08-18T05:04:40.888Z,13.80
2022-08-18T05:07:10.686Z,12.55
2022-08-18T05:09:41.485Z,13.77
2022-08-18T05:12:09.685Z,14.18
2022-08-18T05:14:36.530Z,14.30
2022-08-18T05:17:04.055Z,12.75
2022-08-18T05:19:31.251Z,13.25
2022-08-18T05:22:00.002Z,12.68
2022-08-18T05:24:33.731Z,13.45
2022-08-18T05:27:04.645Z,12.13
2022-08-18T05:29:37.927Z,12.05
2022-08-18T05:32:08.528Z,12.98
2022-08-18T05:34:35.451Z,12.10
2022-08-18T05:37:12.960Z,12.55
2022-08-18T05:39:51.168Z,13.43
2022-08-18T05:42:20.434Z,12.73
2022-08-18T05:44:49.818Z,11.98
2022-08-18T05:47:29.561Z,12.80
2022-08-18T05:49:58.259Z,12.70
2022-08-18T05:52:24.772Z,11.52
2022-08-18T05:55:17.620Z,12.15
2022-08-18T05:57:51.455Z,12.90
2022-08-18T06:00:19.940Z,12.57
2022-08-18T06:03:06.044Z,11.68
2022-08-18T06:05:36.365Z,12.07
2022-08-18T06:08:08.965Z,11.73
2022-08-18T06:10:39.653Z,11.40
2022-08-18T06:13:09.557Z,11.63
2022-08-18T06:15:36.148Z,12.00
2022-08-18T06:18:14.612Z,12.43
2022-08-18T07:04:26.263Z,11.35
2022-08-18T07:06:53.033Z,12.05
2022-08-18T07:09:25.244Z,11.73
2022-08-18T07:12:01.821Z,11.68
2022-08-18T07:14:28.734Z,11.38
2022-08-18T07:17:13.863Z,11.75
2022-08-18T07:19:41.428Z,10.90
2022-08-18T07:22:17.166Z,11.90
2022-08-18T07:24:47.577Z,10.82
2022-08-18T07:27:17.632Z,10.93
2022-08-18T07:30:06.175Z,10.88
2022-08-18T07:32:37.797Z,10.35
2022-08-18T07:35:08.818Z,11.43
2022-08-18T07:37:43.678Z,11.00
2022-08-18T07:40:24.546Z,10.50
2022-08-18T07:43:01.904Z,10.90
2022-08-18T07:45:37.139Z,11.88
2022-08-18T07:48:37.091Z,12.25
2022-08-18T07:51:45.584Z,11.50
2022-08-18T07:54:47.517Z,11.32
2022-08-18T07:57:23.219Z,11.27
2022-08-18T08:03:20.127Z,10.93
2022-08-18T08:06:24.226Z,11.20
2022-08-18T08:08:58.971Z,10.60
2022-08-18T08:11:45.156Z,11.23
2022-08-18T08:14:30.388Z,11.45
2022-08-18T08:17:00.955Z,12.77
2022-08-18T08:19:59.466Z,11.32
2022-08-18T08:22:30.818Z,11.30
2022-08-18T08:25:00.368Z,12.07
2022-08-18T08:28:18.430Z,11.70
2022-08-18T08:30:52.511Z,13.80
2022-08-18T08:33:28.581Z,11.55
2022-08-18T08:36:03.063Z,11.18
2022-08-18T08:38:45.052Z,12.00
2022-08-18T08:41:33.389Z,11.82
2022-08-18T08:44:10.491Z,11.45
2022-08-18T08:46:46.814Z,12.15
2022-08-18T08:49:42.718Z,11.70
2022-08-18T08:52:20.213Z,12.50
2022-08-18T08:54:53.604Z,11.52
2022-08-18T08:59:48.884Z,11.90
2022-08-18T09:02:46.676Z,11.52
2022-08-18T09:05:15.050Z,11.77
2022-08-18T09:08:02.949Z,11.63
2022-08-18T09:10:40.657Z,11.52
2022-08-18T09:13:29.141Z,12.35
2022-08-18T09:16:17.249Z,11.00
2022-08-18T09:19:07.513Z,11.45
2022-08-18T09:22:00.249Z,10.98
2022-08-18T09:24:39.126Z,11.82
2022-08-18T09:27:27.159Z,11.50
2022-08-18T09:29:59.791Z,11.07
2022-08-18T09:32:26.322Z,11.57
2022-08-18T09:35:23.136Z,11.60
2022-08-18T09:38:24.424Z,10.35
2022-08-18T09:41:17.370Z,10.90
2022-08-18T09:44:21.747Z,11.93
2022-08-18T09:46:55.395Z,10.65
2022-08-18T09:49:22.578Z,10.50
2022-08-18T09:51:51.126Z,11.25
2022-08-18T09:54:21.354Z,10.43
2022-08-18T09:56:54.134Z,11.30
2022-08-18T09:59:34.908Z,11.00
2022-08-18T10:02:06.480Z,10.90
2022-08-18T10:04:51.362Z,9.30
2022-08-18T10:07:19.459Z,10.65
2022-08-18T10:09:57.656Z,13.30
2022-08-18T10:13:02.725Z,9.45
2022-08-18T10:15:57.331Z,8.48
2022-08-18T10:18:40.038Z,9.63
2022-08-18T10:21:22.757Z,8.18
2022-08-18T10:24:08.138Z,9.73
2022-08-18T10:29:30.239Z,8.32
2022-08-18T10:31:57.543Z,8.45
2022-08-18T10:37:49.090Z,9.95
2022-08-18T10:40:21.338Z,9.40
2022-08-18T10:43:45.466Z,8.13
2022-08-18T10:46:25.318Z,8.82
2022-08-18T10:49:04.398Z,8.63
2022-08-18T10:52:00.516Z,8.07
2022-08-18T10:54:50.925Z,9.32
2022-08-18T10:57:24.655Z,8.70
2022-08-18T11:00:02.121Z,9.10
2022-08-18T11:03:01.938Z,8.85
2022-08-18T11:05:32.998Z,9.05
2022-08-18T11:08:03.625Z,9.25
2022-08-18T11:11:06.697Z,8.88
2022-08-18T11:13:47.403Z,8.77
2022-08-18T11:16:44.523Z,9.20
2022-08-18T11:19:14.377Z,9.00
2022-08-18T11:21:45.874Z,8.57
2022-08-18T11:24:26.801Z,8.48
2022-08-18T11:26:58.606Z,8.25
2022-08-18T11:29:25.463Z,8.90
2022-08-18T11:32:05.208Z,9.48
2022-08-18T11:34:38.447Z,7.97
2022-08-18T11:37:22.345Z,8.85
2022-08-18T11:39:50.893Z,8.85
2022-08-18T11:42:21.887Z,8.27
2022-08-18T11:44:55.258Z,8.90
2022-08-18T11:50:12.673Z,7.78
2022-08-18T11:52:53.677Z,8.00
2022-08-18T11:55:34.560Z,7.72
2022-08-18T11:58:02.552Z,7.90
2022-08-18T12:00:44.129Z,7.68
2022-08-18T12:03:19.767Z,7.40
2022-08-18T12:06:30.779Z,8.13
2022-08-18T12:09:24.385Z,7.55
2022-08-18T12:12:08.030Z,8.00
2022-08-18T12:15:04.848Z,7.90
2022-08-18T12:17:39.489Z,7.03
2022-08-18T12:20:08.905Z,7.32
2022-08-18T12:22:41.328Z,7.55
2022-08-18T12:25:12.422Z,7.65
2022-08-18T12:27:39.507Z,7.68
2022-08-18T12:30:07.695Z,8.05
2022-08-18T12:35:29.974Z,8.07
2022-08-18T12:38:03.530Z,8.57
2022-08-18T12:40:40.008Z,7.55
2022-08-18T12:43:06.827Z,7.63
2022-08-18T12:45:34.322Z,7.97
2022-08-18T12:48:04.752Z,7.85
2022-08-18T12:50:39.120Z,7.50
2022-08-18T12:53:16.229Z,6.85
2022-08-18T12:55:45.689Z,7.65
2022-08-18T12:58:12.644Z,7.20
2022-08-18T13:00:40.963Z,7.10
2022-08-18T13:03:08.429Z,7.00
2022-08-18T13:05:35.910Z,7.05
2022-08-18T13:08:05.209Z,7.15
2022-08-18T13:10:45.689Z,6.32
2022-08-18T13:13:18.404Z,6.10
2022-08-18T13:15:57.813Z,6.20
2022-08-18T13:18:27.237Z,6.35
2022-08-18T13:20:55.369Z,5.88
2022-08-18T13:23:25.140Z,5.90
2022-08-18T13:25:59.499Z,6.72
2022-08-18T13:28:30.491Z,6.07
2022-08-18T13:30:57.416Z,15.15
2022-08-18T13:33:34.943Z,6.60
2022-08-18T13:36:12.028Z,5.40
2022-08-18T13:38:41.530Z,6.53
2022-08-18T13:41:10.639Z,6.18
2022-08-18T13:43:43.513Z,5.72
2022-08-18T13:46:16.753Z,5.88
2022-08-18T13:48:43.587Z,5.70
2022-08-18T13:51:14.243Z,6.53
2022-08-18T13:53:51.065Z,6.40
2022-08-18T13:56:31.363Z,6.25
2022-08-18T13:58:58.607Z,5.90
2022-08-18T14:01:45.034Z,6.88
2022-08-18T14:04:15.072Z,9.50
2022-08-18T14:06:51.462Z,6.90
2022-08-18T14:09:27.750Z,6.40
2022-08-18T14:12:06.682Z,6.68
2022-08-18T14:14:33.707Z,7.80
2022-08-18T14:17:00.640Z,6.28
2022-08-18T14:19:46.132Z,6.18
2022-08-18T14:22:48.296Z,6.55
2022-08-18T14:25:33.712Z,6.50
2022-08-18T14:28:04.123Z,6.32
2022-08-18T14:30:31.575Z,6.97
2022-08-18T14:32:59.214Z,6.88
2022-08-18T14:35:33.079Z,8.70
2022-08-18T14:38:04.014Z,7.82
2022-08-18T14:40:33.404Z,7.03
2022-08-18T14:43:01.952Z,6.47
2022-08-18T14:45:35.259Z,7.45
2022-08-18T14:48:07.423Z,7.53
2022-08-18T14:50:35.341Z,7.18
2022-08-18T14:53:02.235Z,7.43
2022-08-18T14:55:29.252Z,6.85
2022-08-18T14:57:59.203Z,7.13
2022-08-18T15:00:27.743Z,6.43
2022-08-18T15:02:54.708Z,6.57
2022-08-18T15:05:24.309Z,6.82
2022-08-18T15:07:58.507Z,6.30
2022-08-18T15:10:29.469Z,6.57
2022-08-18T15:13:00.548Z,7.35
2022-08-18T15:15:27.901Z,6.72
2022-08-18T15:18:09.826Z,6.97
2022-08-18T15:20:56.589Z,7.30
2022-08-18T15:23:42.373Z,7.18
2022-08-18T15:26:10.804Z,6.30
2022-08-18T15:28:40.213Z,6.50
2022-08-18T15:33:54.684Z,7.13
2022-08-18T15:36:29.262Z,9.70
2022-08-18T15:38:56.741Z,6.95
2022-08-18T15:41:44.064Z,6.93
2022-08-18T15:44:14.397Z,6.53
2022-08-18T15:46:41.230Z,6.85
2022-08-18T15:49:11.305Z,6.63
2022-08-18T15:51:42.375Z,6.43
2022-08-18T15:54:12.332Z,7.25
2022-08-18T15:56:43.191Z,6.60
2022-08-18T15:59:10.220Z,7.03
2022-08-18T16:01:41.871Z,7.07
2022-08-18T16:06:41.131Z,7.68
2022-08-18T16:09:08.454Z,7.22
2022-08-18T16:11:35.054Z,7.90
2022-08-18T16:14:01.968Z,7.47
2022-08-18T16:16:35.781Z,8.68
2022-08-18T16:19:05.179Z,8.85
2022-08-18T16:21:31.997Z,9.82
2022-08-18T16:23:58.746Z,9.70
2022-08-18T16:26:25.642Z,9.88
2022-08-18T16:28:53.037Z,10.25
2022-08-18T16:31:28.471Z,9.82
2022-08-18T16:33:57.057Z,10.43
2022-08-18T16:36:27.620Z,10.10
2022-08-18T16:38:58.100Z,10.27
2022-08-18T16:41:26.273Z,10.65
2022-08-18T16:43:53.022Z,10.93
2022-08-18T16:46:24.545Z,10.20
2022-08-18T16:48:52.171Z,9.98
2022-08-18T16:51:21.862Z,11.35
2022-08-18T16:53:52.246Z,11.35
2022-08-18T16:56:21.542Z,10.93
2022-08-18T16:59:07.422Z,10.70
2022-08-18T17:01:53.621Z,10.88
2022-08-18T17:04:23.994Z,10.68
2022-08-18T17:06:51.106Z,10.75
2022-08-18T17:09:18.820Z,10.70
2022-08-18T17:11:48.207Z,8.93
2022-08-18T17:14:22.558Z,8.25
2022-08-18T17:16:53.098Z,8.15
2022-08-18T17:19:19.994Z,7.65
2022-08-18T17:21:46.920Z,7.60
2022-08-18T17:24:15.554Z,7.75
2022-08-18T17:27:05.094Z,8.23
2022-08-18T17:29:55.117Z,7.90
2022-08-18T17:32:25.831Z,7.93
2022-08-18T17:35:00.887Z,7.93
2022-08-18T17:37:29.006Z,7.68
2022-08-18T17:40:02.085Z,7.55
2022-08-18T17:42:31.344Z,7.85
2022-08-18T17:45:01.315Z,7.47
2022-08-18T17:47:59.997Z,7.43
2022-08-18T17:50:52.222Z,8.13
2022-08-18T17:53:21.462Z,8.10
2022-08-18T17:56:21.667Z,7.93
2022-08-18T17:58:56.438Z,7.53
2022-08-18T18:01:25.865Z,7.75
2022-08-18T18:03:53.716Z,7.22
2022-08-18T18:06:41.870Z,7.55
2022-08-18T18:09:21.885Z,6.88
2022-08-18T18:11:48.526Z,6.97
2022-08-18T18:14:27.837Z,7.07
2022-08-18T18:17:16.860Z,7.18
2022-08-18T18:19:46.181Z,7.65
2022-08-18T18:22:25.905Z,7.38
2022-08-18T18:25:00.793Z,8.35
2022-08-18T18:27:30.563Z,7.40
2022-08-18T18:30:05.126Z,7.75
2022-08-18T18:32:59.475Z,7.70
2022-08-18T18:35:53.285Z,6.93
2022-08-18T18:38:36.498Z,7.07
2022-08-18T18:41:04.919Z,7.90
2022-08-18T18:43:42.026Z,7.18
2022-08-18T18:46:31.242Z,7.22
2022-08-18T18:49:03.800Z,7.05
2022-08-18T18:51:47.102Z,7.50
2022-08-18T18:54:26.060Z,7.20
2022-08-18T18:56:56.396Z,6.30
2022-08-18T18:59:48.054Z,8.05
2022-08-18T19:02:33.466Z,6.90
2022-08-18T19:05:12.450Z,6.90
2022-08-18T19:07:57.100Z,7.75
2022-08-18T19:10:56.261Z,6.68
2022-08-18T19:13:32.777Z,6.60
2022-08-18T19:16:23.569Z,5.50
2022-08-18T19:19:38.424Z,6.32
2022-08-18T19:22:04.108Z,6.25
2022-08-18T19:24:38.618Z,5.78
2022-08-18T19:27:07.592Z,5.60
2022-08-18T19:29:41.061Z,5.78
2022-08-18T19:32:16.353Z,6.13
2022-08-18T19:34:52.452Z,5.40
2022-08-18T19:37:40.375Z,5.30
2022-08-18T19:40:40.925Z,6.05
2022-08-18T19:43:17.782Z,5.85
2022-08-18T19:45:57.816Z,5.25
2022-08-18T19:48:30.114Z,5.72
2022-08-18T19:51:05.000Z,6.30
2022-08-18T19:53:54.199Z,6.28
2022-08-18T19:56:39.803Z,5.65
2022-08-18T19:59:22.879Z,5.65
2022-08-18T20:01:51.889Z,6.15
2022-08-18T20:04:43.532Z,5.43
2022-08-18T20:07:22.283Z,6.38
2022-08-18T20:10:08.345Z,5.80
2022-08-18T20:13:02.420Z,5.60
2022-08-18T20:15:31.085Z,6.32
2022-08-18T20:17:57.592Z,6.38
2022-08-18T20:20:33.011Z,6.22
2022-08-18T20:23:00.835Z,6.15
2022-08-18T20:25:43.270Z,6.35
2022-08-18T20:28:10.475Z,6.70
2022-08-18T20:31:12.821Z,6.18
2022-08-18T20:33:47.077Z,6.15
2022-08-18T20:36:20.369Z,6.28
2022-08-18T20:38:49.793Z,6.38
2022-08-18T20:41:50.615Z,6.07
2022-08-18T20:44:52.574Z,6.63
2022-08-18T20:47:31.337Z,6.78
2022-08-18T20:50:35.981Z,6.43
2022-08-18T20:55:53.167Z,6.43
2022-08-18T20:58:27.442Z,6.90
2022-08-18T21:00:57.146Z,6.47
2022-08-18T21:03:35.602Z,6.82
2022-08-18T21:06:06.400Z,6.53
2022-08-18T21:08:35.460Z,7.07
2022-08-18T21:11:08.188Z,6.88
2022-08-18T21:13:40.907Z,6.25
2022-08-18T21:16:08.684Z,7.07
2022-08-18T21:18:35.606Z,6.50
2022-08-18T21:21:05.304Z,7.10
2022-08-18T21:23:34.393Z,6.53
2022-08-18T21:26:13.917Z,6.15
2022-08-18T21:28:44.934Z,6.82
2022-08-18T21:31:44.421Z,7.00
2022-08-18T21:34:29.997Z,6.90
2022-08-18T21:36:58.419Z,6.97
2022-08-18T21:39:25.305Z,7.28
2022-08-18T21:41:55.005Z,7.35
2022-08-18T21:44:35.681Z,7.28
2022-08-18T21:47:27.486Z,6.82
2022-08-18T21:50:00.180Z,7.07
2022-08-18T21:54:57.893Z,6.95
2022-08-18T21:57:27.835Z,6.70
2022-08-18T22:00:25.375Z,6.80
2022-08-18T22:03:10.876Z,7.07
2022-08-18T22:05:58.994Z,7.85
2022-08-18T22:08:29.374Z,7.47
2022-08-18T22:11:41.858Z,6.75
2022-08-18T22:14:35.754Z,6.75
2022-08-18T22:17:31.467Z,7.38
2022-08-18T22:20:38.741Z,7.13
2022-08-18T22:23:32.741Z,7.30
2022-08-18T22:26:05.544Z,7.05
2022-08-18T22:28:32.522Z,7.53
2022-08-18T22:30:59.467Z,7.35
2022-08-18T22:33:26.066Z,7.25
2022-08-18T22:35:54.559Z,7.22
2022-08-18T22:38:26.411Z,6.78
2022-08-18T22:40:53.055Z,6.47
2022-08-18T22:43:22.213Z,7.45
2022-08-18T22:45:49.119Z,6.90
2022-08-18T22:48:16.472Z,7.00
2022-08-18T22:50:46.004Z,7.32
2022-08-18T22:53:17.096Z,8.00
2022-08-18T22:55:43.749Z,6.70
2022-08-18T22:58:12.911Z,7.10
2022-08-18T23:00:43.691Z,6.30
2022-08-18T23:03:10.487Z,6.68
2022-08-18T23:05:37.197Z,6.82
2022-08-18T23:08:06.247Z,6.82
2022-08-18T23:10:32.913Z,6.65
2022-08-18T23:13:04.081Z,7.45
2022-08-18T23:16:30.729Z,6.85
2022-08-18T23:18:47.175Z,7.22
2022-08-18T23:21:35.392Z,7.28
2022-08-18T23:24:06.292Z,7.00
2022-08-18T23:26:34.260Z,6.68
2022-08-18T23:29:01.537Z,7.55
2022-08-18T23:31:30.336Z,7.03
2022-08-18T23:33:58.872Z,6.78
2022-08-18T23:36:25.521Z,7.07
2022-08-18T23:38:54.504Z,6.35
2022-08-18T23:41:21.730Z,7.07
2022-08-18T23:43:49.258Z,7.65
2022-08-18T23:46:28.767Z,6.82
2022-08-18T23:51:39.661Z,6.93
2022-08-18T23:54:12.354Z,6.50
2022-08-18T23:56:39.574Z,6.63
2022-08-18T23:59:07.099Z,6.78
